createdAt,value
2022-08-27T00:00:38.342Z,76.63
2022-08-27T00:03:10.592Z,75.20
2022-08-27T00:05:42.510Z,70.53
2022-08-27T00:08:17.298Z,78.47
2022-08-27T00:10:48.956Z,72.17
2022-08-27T00:13:20.626Z,74.57
2022-08-27T00:15:52.381Z,71.63
2022-08-27T00:18:24.052Z,74.47
2022-08-27T00:20:55.648Z,74.60
2022-08-27T00:23:27.412Z,73.30
2022-08-27T00:26:00.015Z,71.70
2022-08-27T00:28:32.252Z,72.33
2022-08-27T00:31:04.080Z,74.93
2022-08-27T00:33:35.869Z,73.50
2022-08-27T00:36:08.688Z,72.70
2022-08-27T00:38:41.220Z,77.07
2022-08-27T00:41:13.698Z,72.73
2022-08-27T00:43:52.417Z,71.70
2022-08-27T00:46:27.131Z,74.80
2022-08-27T00:49:05.367Z,73.90
2022-08-27T00:51:38.527Z,75.27
2022-08-27T00:54:11.224Z,75.53
2022-08-27T00:56:51.798Z,72.63
2022-08-27T00:59:29.284Z,74.00
2022-08-27T01:02:20.046Z,72.47
2022-08-27T01:05:05.469Z,74.93
2022-08-27T01:07:41.788Z,73.93
2022-08-27T01:10:16.857Z,75.70
2022-08-27T01:12:53.265Z,68.13
2022-08-27T01:15:27.968Z,77.70
2022-08-27T01:18:03.386Z,74.63
2022-08-27T01:21:09.879Z,75.43
2022-08-27T01:23:52.589Z,69.57
2022-08-27T01:26:25.209Z,77.43
2022-08-27T01:28:58.075Z,71.87
2022-08-27T01:31:29.935Z,73.03
2022-08-27T01:34:06.211Z,71.60
2022-08-27T01:36:37.900Z,72.37
2022-08-27T01:39:09.555Z,72.70
2022-08-27T01:41:44.562Z,73.23
2022-08-27T01:44:19.435Z,72.83
2022-08-27T01:46:52.559Z,74.03
2022-08-27T01:49:24.241Z,73.43
2022-08-27T01:51:55.933Z,72.17
2022-08-27T01:54:27.571Z,74.47
2022-08-27T01:56:59.992Z,76.60
2022-08-27T01:59:39.555Z,79.93
2022-08-27T02:02:14.332Z,76.70
2022-08-27T02:04:45.992Z,79.30
2022-08-27T02:07:18.369Z,76.10
2022-08-27T02:09:50.652Z,77.70
2022-08-27T02:12:22.417Z,76.27
2022-08-27T02:14:54.036Z,76.50
2022-08-27T02:17:25.692Z,74.53
2022-08-27T02:19:57.547Z,75.30
2022-08-27T02:22:31.340Z,74.03
2022-08-27T02:25:07.087Z,74.23
2022-08-27T02:27:43.880Z,78.67
2022-08-27T02:30:21.417Z,75.03
2022-08-27T02:32:53.471Z,72.17
2022-08-27T02:35:25.192Z,73.90
2022-08-27T02:37:57.480Z,74.43
2022-08-27T02:40:29.761Z,76.10
2022-08-27T02:43:01.564Z,75.67
2022-08-27T02:45:33.264Z,75.77
2022-08-27T02:48:08.012Z,76.40
2022-08-27T02:50:43.651Z,76.67
2022-08-27T02:53:15.280Z,80.23
2022-08-27T02:55:47.989Z,79.23
2022-08-27T02:58:19.700Z,81.00
2022-08-27T03:00:52.004Z,74.70
2022-08-27T03:03:23.703Z,76.40
2022-08-27T03:05:56.244Z,74.23
2022-08-27T03:08:28.795Z,76.70
2022-08-27T03:11:04.369Z,73.73
2022-08-27T03:13:38.203Z,73.17
2022-08-27T03:16:09.931Z,77.15
2022-08-27T03:18:41.868Z,74.67
2022-08-27T03:21:22.258Z,78.27
2022-08-27T03:23:54.365Z,74.60
2022-08-27T03:26:26.187Z,74.50
2022-08-27T03:28:59.295Z,76.80
2022-08-27T03:31:31.289Z,76.23
2022-08-27T03:34:07.479Z,74.70
2022-08-27T03:36:39.079Z,78.13
2022-08-27T03:39:10.697Z,79.33
2022-08-27T03:41:54.274Z,81.13
2022-08-27T03:47:00.062Z,78.87
2022-08-27T03:49:32.964Z,82.80
2022-08-27T03:52:04.707Z,84.70
2022-08-27T03:54:38.371Z,84.83
2022-08-27T03:57:10.637Z,81.80
2022-08-27T03:59:42.278Z,87.30
2022-08-27T04:02:14.978Z,85.47
2022-08-27T04:04:47.279Z,84.03
2022-08-27T04:07:19.181Z,80.20
2022-08-27T04:09:50.837Z,85.67
2022-08-27T04:12:22.445Z,81.57
2022-08-27T04:14:54.534Z,83.20
2022-08-27T04:17:26.330Z,78.83
2022-08-27T04:20:08.678Z,83.80
2022-08-27T04:22:51.484Z,86.70
2022-08-27T04:25:23.121Z,84.57
2022-08-27T04:27:54.772Z,85.10
2022-08-27T04:30:26.824Z,79.73
2022-08-27T04:32:58.793Z,82.33
2022-08-27T04:35:30.520Z,78.97
2022-08-27T04:38:03.533Z,77.33
2022-08-27T04:40:55.761Z,80.60
2022-08-27T04:43:28.321Z,82.77
2022-08-27T04:46:02.875Z,78.67
2022-08-27T04:48:35.603Z,80.30
2022-08-27T04:51:10.123Z,79.50
2022-08-27T04:53:46.636Z,83.87
2022-08-27T04:56:21.905Z,80.40
2022-08-27T04:58:53.535Z,82.03
2022-08-27T05:01:28.922Z,77.57
2022-08-27T05:04:00.942Z,80.87
2022-08-27T05:06:33.680Z,77.20
2022-08-27T05:09:06.076Z,82.27
2022-08-27T05:11:37.787Z,81.90
2022-08-27T05:14:11.689Z,82.47
2022-08-27T05:16:43.485Z,84.70
2022-08-27T05:19:15.385Z,82.33
2022-08-27T05:21:48.903Z,83.70
2022-08-27T05:24:21.557Z,83.53
2022-08-27T05:26:53.958Z,80.33
2022-08-27T05:29:26.556Z,82.13
2022-08-27T05:31:58.406Z,81.93
2022-08-27T05:34:30.776Z,84.80
2022-08-27T05:37:03.502Z,86.60
2022-08-27T05:39:35.164Z,83.87
2022-08-27T05:42:07.303Z,90.30
2022-08-27T05:44:41.321Z,83.10
2022-08-27T05:49:45.503Z,82.27
2022-08-27T05:52:17.167Z,86.13
2022-08-27T05:54:48.794Z,86.50
2022-08-27T05:57:20.443Z,83.73
2022-08-27T06:00:15.613Z,78.83
2022-08-27T06:02:50.571Z,82.63
2022-08-27T06:05:22.360Z,84.80
2022-08-27T06:07:54.042Z,81.80
2022-08-27T06:10:25.691Z,79.87
2022-08-27T06:12:57.338Z,82.87
2022-08-27T06:15:29.454Z,85.97
2022-08-27T06:18:01.623Z,82.33
2022-08-27T06:20:33.220Z,80.00
2022-08-27T06:23:05.499Z,82.27
2022-08-27T06:25:40.611Z,78.50
2022-08-27T06:28:13.504Z,77.40
2022-08-27T06:30:45.200Z,82.60
2022-08-27T06:33:17.405Z,84.90
2022-08-27T06:35:48.988Z,83.23
2022-08-27T06:38:20.640Z,82.27
2022-08-27T06:40:52.240Z,80.37
2022-08-27T06:43:25.214Z,83.03
2022-08-27T06:45:56.953Z,84.77
2022-08-27T06:48:28.610Z,82.23
2022-08-27T06:51:14.513Z,88.03
2022-08-27T06:53:47.500Z,83.77
2022-08-27T06:56:19.933Z,89.43
2022-08-27T06:59:00.524Z,94.13
2022-08-27T07:01:38.459Z,87.37
2022-08-27T07:04:14.152Z,81.50
2022-08-27T07:06:45.970Z,82.60
2022-08-27T07:09:20.625Z,88.70
2022-08-27T07:11:52.276Z,84.40
2022-08-27T07:14:23.901Z,85.50
2022-08-27T07:16:55.524Z,79.47
2022-08-27T07:19:30.304Z,84.03
2022-08-27T07:22:03.079Z,84.13
2022-08-27T07:24:35.805Z,89.57
2022-08-27T07:27:07.983Z,86.57
2022-08-27T07:29:40.809Z,87.93
2022-08-27T07:32:12.530Z,91.00
2022-08-27T07:34:44.303Z,86.50
2022-08-27T07:37:15.915Z,89.47
2022-08-27T07:39:47.901Z,87.43
2022-08-27T07:42:38.177Z,93.67
2022-08-27T07:45:13.146Z,90.80
2022-08-27T07:47:44.877Z,88.63
2022-08-27T07:50:16.608Z,87.73
2022-08-27T07:52:48.213Z,86.13
2022-08-27T07:55:19.951Z,91.13
2022-08-27T07:57:52.879Z,91.50
2022-08-27T08:00:25.509Z,92.70
2022-08-27T08:02:57.555Z,89.03
2022-08-27T08:05:29.968Z,91.13
2022-08-27T08:08:01.755Z,92.67
2022-08-27T08:10:36.661Z,96.10
2022-08-27T08:13:08.323Z,92.07
2022-08-27T08:15:40.102Z,93.60
2022-08-27T08:18:12.250Z,95.70
2022-08-27T08:20:57.724Z,93.47
2022-08-27T08:23:30.573Z,96.27
2022-08-27T08:26:02.842Z,92.63
2022-08-27T08:28:34.826Z,95.03
2022-08-27T08:31:07.044Z,97.40
2022-08-27T08:33:39.089Z,94.90
2022-08-27T08:36:13.706Z,96.97
2022-08-27T08:38:48.358Z,92.20
2022-08-27T08:41:38.085Z,96.20
2022-08-27T08:44:33.068Z,98.10
2022-08-27T08:50:08.172Z,92.87
2022-08-27T08:53:07.489Z,97.70
2022-08-27T08:55:55.048Z,93.17
2022-08-27T08:58:52.752Z,97.03
2022-08-27T09:01:27.639Z,97.03
2022-08-27T09:04:09.333Z,94.57
2022-08-27T09:07:04.502Z,91.17
2022-08-27T09:09:54.774Z,93.53
2022-08-27T09:12:30.644Z,94.17
2022-08-27T09:15:26.733Z,92.87
2022-08-27T09:18:15.045Z,93.53
2022-08-27T09:20:51.506Z,95.37
2022-08-27T09:23:33.160Z,93.23
2022-08-27T09:26:04.824Z,94.13
2022-08-27T09:28:59.708Z,97.97
2022-08-27T09:31:41.113Z,94.50
2022-08-27T09:34:13.954Z,97.57
2022-08-27T09:37:00.227Z,93.93
2022-08-27T09:39:52.180Z,94.10
2022-08-27T09:42:38.782Z,96.40
2022-08-27T09:45:14.736Z,96.93
2022-08-27T09:48:02.286Z,93.57
2022-08-27T09:50:43.961Z,97.07
2022-08-27T09:53:18.891Z,92.87
2022-08-27T09:55:57.537Z,94.33
2022-08-27T09:58:34.436Z,95.03
2022-08-27T10:01:20.230Z,95.00
2022-08-27T10:04:08.115Z,92.30
2022-08-27T10:06:47.088Z,95.57
2022-08-27T10:09:34.689Z,92.63
2022-08-27T10:12:15.382Z,91.83
2022-08-27T10:14:52.540Z,89.10
2022-08-27T10:17:43.763Z,95.87
2022-08-27T10:20:31.004Z,91.23
2022-08-27T10:23:14.948Z,94.40
2022-08-27T10:26:11.877Z,94.50
2022-08-27T10:29:05.976Z,95.23
2022-08-27T10:31:46.010Z,95.25
2022-08-27T10:34:39.112Z,98.97
2022-08-27T10:37:26.183Z,100.73
2022-08-27T10:40:27.058Z,100.87
2022-08-27T10:43:20.227Z,100.90
2022-08-27T10:45:57.543Z,97.33
2022-08-27T10:48:39.902Z,99.97
2022-08-27T10:51:17.598Z,95.47
2022-08-27T10:53:58.220Z,99.03
2022-08-27T10:56:39.050Z,102.83
2022-08-27T10:59:42.159Z,102.37
2022-08-27T11:02:25.873Z,102.27
2022-08-27T11:05:06.158Z,106.97
2022-08-27T11:07:42.216Z,106.30
2022-08-27T11:10:23.759Z,107.10
2022-08-27T11:12:59.911Z,106.13
2022-08-27T11:15:35.169Z,109.50
2022-08-27T11:18:31.629Z,111.77
2022-08-27T11:21:18.849Z,112.00
2022-08-27T11:23:59.428Z,111.33
2022-08-27T11:26:33.642Z,112.87
2022-08-27T11:29:33.175Z,109.80
2022-08-27T11:32:18.775Z,110.87
2022-08-27T11:34:58.230Z,108.18
2022-08-27T11:37:48.628Z,113.07
2022-08-27T11:40:41.700Z,112.20
2022-08-27T11:43:18.415Z,109.93
2022-08-27T11:45:57.526Z,106.43
2022-08-27T11:48:30.313Z,103.43
2022-08-27T11:51:03.731Z,108.30
2022-08-27T11:53:42.709Z,109.85
2022-08-27T11:56:36.893Z,105.80
2022-08-27T11:59:32.537Z,108.93
2022-08-27T12:02:26.161Z,106.17
2022-08-27T12:05:10.537Z,105.30
2022-08-27T12:07:46.041Z,107.32
2022-08-27T12:10:29.848Z,115.00
2022-08-27T12:13:25.095Z,112.05
2022-08-27T12:16:16.391Z,110.77
2022-08-27T12:19:18.171Z,108.20
2022-08-27T12:21:49.741Z,108.33
2022-08-27T12:24:42.913Z,110.50
2022-08-27T12:27:29.500Z,109.43
2022-08-27T12:30:29.897Z,104.90
2022-08-27T12:33:13.751Z,109.13
2022-08-27T12:35:48.658Z,105.75
2022-08-27T12:38:37.794Z,103.17
2022-08-27T12:41:10.041Z,106.50
2022-08-27T12:43:43.967Z,104.80
2022-08-27T12:46:19.025Z,101.70
2022-08-27T12:49:10.067Z,96.73
2022-08-27T12:51:52.925Z,100.37
2022-08-27T12:54:42.825Z,105.03
2022-08-27T12:57:41.620Z,103.67
2022-08-27T13:00:24.163Z,104.53
2022-08-27T13:03:26.693Z,104.43
2022-08-27T13:06:00.898Z,104.20
2022-08-27T13:11:21.905Z,107.03
2022-08-27T13:14:06.172Z,105.10
2022-08-27T13:16:43.017Z,111.43
2022-08-27T13:19:24.218Z,104.90
2022-08-27T13:21:56.875Z,104.87
2022-08-27T13:24:44.362Z,102.43
2022-08-27T13:27:16.329Z,108.50
2022-08-27T13:29:48.098Z,99.90
2022-08-27T13:32:20.559Z,98.57
2022-08-27T13:34:53.432Z,101.50
2022-08-27T13:37:30.217Z,102.53
2022-08-27T13:40:02.025Z,99.93
2022-08-27T13:42:33.971Z,107.20
2022-08-27T13:45:06.288Z,100.97
2022-08-27T13:47:48.841Z,101.73
2022-08-27T13:50:29.755Z,97.67
2022-08-27T13:53:25.774Z,103.03
2022-08-27T13:55:58.895Z,99.03
2022-08-27T13:58:33.590Z,101.90
2022-08-27T14:01:14.693Z,99.20
2022-08-27T14:04:03.755Z,99.07
2022-08-27T14:06:46.635Z,99.30
2022-08-27T14:09:25.426Z,100.50
2022-08-27T14:12:04.379Z,101.77
2022-08-27T14:14:38.882Z,103.67
2022-08-27T14:17:29.821Z,100.23
2022-08-27T14:20:02.927Z,101.80
2022-08-27T14:22:38.700Z,102.43
2022-08-27T14:25:10.763Z,102.63
2022-08-27T14:27:47.892Z,99.57
2022-08-27T14:30:29.318Z,101.87
2022-08-27T14:33:02.531Z,99.10
2022-08-27T14:35:35.954Z,97.40
2022-08-27T14:38:20.420Z,97.88
2022-08-27T14:40:54.571Z,105.80
2022-08-27T14:43:26.296Z,97.60
2022-08-27T14:45:58.773Z,99.13
2022-08-27T14:48:33.911Z,98.63
2022-08-27T14:51:12.316Z,98.00
2022-08-27T14:53:43.958Z,100.57
2022-08-27T14:56:17.839Z,107.40
2022-08-27T14:58:49.911Z,99.13
2022-08-27T15:01:26.372Z,96.90
2022-08-27T15:03:58.528Z,102.23
2022-08-27T15:06:30.564Z,98.93
2022-08-27T15:09:03.433Z,101.07
2022-08-27T15:11:37.616Z,94.97
2022-08-27T15:16:44.716Z,98.73
2022-08-27T15:19:19.650Z,94.07
2022-08-27T15:21:53.251Z,96.87
2022-08-27T15:24:28.566Z,97.93
2022-08-27T15:27:00.214Z,99.03
2022-08-27T15:29:31.810Z,97.17
2022-08-27T15:32:04.164Z,98.13
2022-08-27T15:34:35.805Z,99.10
2022-08-27T15:37:07.493Z,98.47
2022-08-27T15:39:39.128Z,97.80
2022-08-27T15:42:11.633Z,95.77
2022-08-27T15:44:49.559Z,101.90
2022-08-27T15:47:22.505Z,104.23
2022-08-27T15:49:54.219Z,93.90
2022-08-27T15:52:40.237Z,102.30
2022-08-27T15:55:25.920Z,100.83
2022-08-27T15:57:58.365Z,97.10
2022-08-27T16:00:33.702Z,99.97
2022-08-27T16:03:09.186Z,98.13
2022-08-27T16:05:44.220Z,103.97
2022-08-27T16:08:15.855Z,98.40
2022-08-27T16:10:47.569Z,101.67
2022-08-27T16:13:19.678Z,100.97
2022-08-27T16:15:52.154Z,103.17
2022-08-27T16:18:30.757Z,97.00
2022-08-27T16:21:04.173Z,101.70
2022-08-27T16:23:36.645Z,101.65
2022-08-27T16:26:08.220Z,101.53
2022-08-27T16:28:39.825Z,101.70
2022-08-27T16:31:13.601Z,100.97
2022-08-27T16:33:45.389Z,100.65
2022-08-27T16:36:17.028Z,101.47
2022-08-27T16:38:48.718Z,95.80
2022-08-27T16:41:21.389Z,99.17
2022-08-27T16:43:53.058Z,101.80
2022-08-27T16:46:25.097Z,97.30
2022-08-27T16:49:15.086Z,99.50
2022-08-27T16:51:46.931Z,98.93
2022-08-27T16:54:18.669Z,98.20
2022-08-27T16:56:50.473Z,101.80
2022-08-27T16:59:22.136Z,100.20
2022-08-27T17:01:55.310Z,97.67
2022-08-27T17:04:32.328Z,96.87
2022-08-27T17:07:09.883Z,99.60
2022-08-27T17:09:41.513Z,97.50
2022-08-27T17:12:15.062Z,95.37
2022-08-27T17:14:46.958Z,99.63
2022-08-27T17:17:19.276Z,98.07
2022-08-27T17:19:50.863Z,94.80
2022-08-27T17:22:22.490Z,97.00
2022-08-27T17:24:54.091Z,96.97
2022-08-27T17:27:25.753Z,96.67
2022-08-27T17:30:03.742Z,97.57
2022-08-27T17:32:39.815Z,93.07
2022-08-27T17:35:11.885Z,92.37
2022-08-27T17:37:43.537Z,95.07
2022-08-27T17:40:15.172Z,94.60
2022-08-27T17:42:46.935Z,91.90
2022-08-27T17:45:18.694Z,95.03
2022-08-27T17:47:50.316Z,98.77
2022-08-27T17:50:21.900Z,94.40
2022-08-27T17:52:53.504Z,93.40
2022-08-27T17:55:27.338Z,94.82
2022-08-27T17:57:58.916Z,95.87
2022-08-27T18:00:31.571Z,94.83
2022-08-27T18:03:04.261Z,94.17
2022-08-27T18:05:35.870Z,92.70
2022-08-27T18:08:07.573Z,89.70
2022-08-27T18:10:41.075Z,90.73
2022-08-27T18:13:14.866Z,91.57
2022-08-27T18:15:47.882Z,89.20
2022-08-27T18:18:19.630Z,88.00
2022-08-27T18:20:51.568Z,87.13
2022-08-27T18:23:23.753Z,85.27
2022-08-27T18:25:55.937Z,88.93
2022-08-27T18:28:28.861Z,89.63
2022-08-27T18:31:05.503Z,90.73
2022-08-27T18:33:38.501Z,88.00
2022-08-27T18:36:10.981Z,84.20
2022-08-27T18:38:50.055Z,89.53
2022-08-27T18:41:22.525Z,90.77
2022-08-27T18:43:54.200Z,90.90
2022-08-27T18:46:25.941Z,86.03
2022-08-27T18:48:57.606Z,86.63
2022-08-27T18:51:31.442Z,88.03
2022-08-27T18:54:07.393Z,85.73
2022-08-27T18:56:39.048Z,89.37
2022-08-27T18:59:11.245Z,82.30
2022-08-27T19:01:44.637Z,84.33
2022-08-27T19:04:18.491Z,87.43
2022-08-27T19:06:50.217Z,85.97
2022-08-27T19:09:21.792Z,86.13
2022-08-27T19:11:53.410Z,82.67
2022-08-27T19:14:25.018Z,86.10
2022-08-27T19:16:57.316Z,82.77
2022-08-27T19:19:29.086Z,84.27
2022-08-27T19:22:00.944Z,89.93
2022-08-27T19:24:40.015Z,86.83
2022-08-27T19:27:11.962Z,85.40
2022-08-27T19:29:43.975Z,86.13
2022-08-27T19:32:18.573Z,84.10
2022-08-27T19:34:52.690Z,88.20
2022-08-27T19:37:26.829Z,85.95
2022-08-27T19:39:58.561Z,88.22
2022-08-27T19:42:31.096Z,81.20
2022-08-27T19:45:02.719Z,85.53
2022-08-27T19:47:35.095Z,86.60
2022-08-27T19:50:09.429Z,84.60
2022-08-27T19:55:14.452Z,79.93
2022-08-27T19:57:48.275Z,82.27
2022-08-27T20:00:21.773Z,84.77
2022-08-27T20:02:53.267Z,83.82
2022-08-27T20:05:25.263Z,80.63
2022-08-27T20:07:56.977Z,86.13
2022-08-27T20:10:35.942Z,85.40
2022-08-27T20:13:08.621Z,81.03
2022-08-27T20:15:40.774Z,80.63
2022-08-27T20:18:13.130Z,82.83
2022-08-27T20:20:44.941Z,84.70
2022-08-27T20:23:16.514Z,79.90
2022-08-27T20:25:48.231Z,82.20
2022-08-27T20:28:39.017Z,82.17
2022-08-27T20:31:11.305Z,79.93
2022-08-27T20:33:44.379Z,81.57
2022-08-27T20:36:16.188Z,82.87
2022-08-27T20:38:47.809Z,83.83
2022-08-27T20:41:20.637Z,80.57
2022-08-27T20:43:52.289Z,84.40
2022-08-27T20:46:26.370Z,80.07
2022-08-27T20:48:58.104Z,77.85
2022-08-27T20:51:29.792Z,79.53
2022-08-27T20:54:21.643Z,78.50
2022-08-27T20:56:53.377Z,78.60
2022-08-27T20:59:43.979Z,82.40
2022-08-27T21:02:21.554Z,82.27
2022-08-27T21:04:54.049Z,83.27
2022-08-27T21:07:25.797Z,82.70
2022-08-27T21:09:57.712Z,81.13
2022-08-27T21:12:31.840Z,84.60
2022-08-27T21:15:05.363Z,81.93
2022-08-27T21:17:37.108Z,81.05
2022-08-27T21:20:12.843Z,76.93
2022-08-27T21:22:44.869Z,81.17
2022-08-27T21:25:16.540Z,78.43
2022-08-27T21:27:48.117Z,78.20
2022-08-27T21:30:21.523Z,82.47
2022-08-27T21:32:55.853Z,83.78
2022-08-27T21:35:31.111Z,81.55
2022-08-27T21:38:03.313Z,80.83
2022-08-27T21:40:34.991Z,82.10
2022-08-27T21:43:07.128Z,80.13
2022-08-27T21:45:39.392Z,79.93
2022-08-27T21:48:11.325Z,83.63
2022-08-27T21:50:43.117Z,79.53
2022-08-27T21:53:15.228Z,81.33
2022-08-27T21:55:47.372Z,81.70
2022-08-27T21:58:23.328Z,84.23
2022-08-27T22:00:58.636Z,81.70
2022-08-27T22:03:31.277Z,82.90
2022-08-27T22:06:06.644Z,81.97
2022-08-27T22:08:39.101Z,79.70
2022-08-27T22:11:11.818Z,80.17
2022-08-27T22:13:43.536Z,79.77
2022-08-27T22:16:15.197Z,81.60
2022-08-27T22:18:46.811Z,82.60
2022-08-27T22:21:26.819Z,82.33
2022-08-27T22:23:58.786Z,82.83
2022-08-27T22:26:30.961Z,79.13
2022-08-27T22:29:03.848Z,82.73
2022-08-27T22:31:35.745Z,77.90
2022-08-27T22:34:08.109Z,82.63
2022-08-27T22:36:48.167Z,81.53
2022-08-27T22:39:20.188Z,76.67
2022-08-27T22:41:51.960Z,75.50
2022-08-27T22:44:24.782Z,83.27
2022-08-27T22:46:57.273Z,80.33
2022-08-27T22:49:28.902Z,80.07
2022-08-27T22:52:00.534Z,80.50
2022-08-27T22:54:32.260Z,79.57
2022-08-27T22:57:04.240Z,79.43
2022-08-27T22:59:35.963Z,74.40
2022-08-27T23:02:10.916Z,74.47
2022-08-27T23:04:54.685Z,74.30
2022-08-27T23:07:27.387Z,75.35
2022-08-27T23:10:01.912Z,78.23
2022-08-27T23:12:37.802Z,78.83
2022-08-27T23:15:11.547Z,76.90
2022-08-27T23:17:43.274Z,79.20
2022-08-27T23:20:16.240Z,78.47
2022-08-27T23:22:52.903Z,77.40
2022-08-27T23:25:45.603Z,74.67
2022-08-27T23:28:17.570Z,77.57
2022-08-27T23:30:49.702Z,77.03
2022-08-27T23:33:21.390Z,81.07
2022-08-27T23:35:53.004Z,75.53
2022-08-27T23:38:24.636Z,77.43
2022-08-27T23:40:56.829Z,77.90
2022-08-27T23:43:28.663Z,80.70
2022-08-27T23:46:00.316Z,81.00
2022-08-27T23:48:34.109Z,78.47
2022-08-27T23:51:07.869Z,75.05
2022-08-27T23:53:39.522Z,75.60
2022-08-27T23:56:11.243Z,77.13
2022-08-27T23:58:43.050Z,75.03
